createdAt,value
2019-04-11T00:01:19.827Z,96375.70
2019-04-11T00:03:51.451Z,96378.05
2019-04-11T00:06:41.674Z,96374.25
2019-04-11T00:09:16.689Z,96380.05
2019-04-11T00:11:48.269Z,96377.58
2019-04-11T00:14:20.013Z,96376.09
2019-04-11T00:16:51.051Z,96381.64
2019-04-11T00:19:23.147Z,96379.78
2019-04-11T00:21:55.502Z,96376.95
2019-04-11T00:24:27.128Z,96382.14
2019-04-11T00:26:58.469Z,96382.52
2019-04-11T00:29:30.284Z,96380.22
2019-04-11T00:32:01.367Z,96386.56
2019-04-11T00:34:33.119Z,96380.52
2019-04-11T00:37:05.138Z,96382.55
2019-04-11T00:39:37.559Z,96385.73
2019-04-11T00:42:08.938Z,96386.03
2019-04-11T00:44:41.156Z,96391.19
2019-04-11T00:47:13.088Z,96388.56
2019-04-11T00:49:44.132Z,96393.61
2019-04-11T00:52:16.241Z,96397.67
2019-04-11T00:54:47.327Z,96393.38
2019-04-11T00:57:18.958Z,96394.30
2019-04-11T00:59:50.912Z,96389.56
2019-04-11T01:02:23.150Z,96395.71
2019-04-11T01:04:54.251Z,96396.13
2019-04-11T01:07:25.426Z,96396.84
2019-04-11T01:09:56.878Z,96393.09
2019-04-11T01:12:28.917Z,96393.06
2019-04-11T01:14:59.972Z,96388.05
2019-04-11T01:17:31.588Z,96390.44
2019-04-11T01:20:02.928Z,96391.06
2019-04-11T01:22:34.276Z,96386.41
2019-04-11T01:25:06.312Z,96390.64
2019-04-11T01:27:39.344Z,96391.06
2019-04-11T01:30:13.795Z,96396.01
2019-04-11T01:32:44.999Z,96397.03
2019-04-11T01:35:17.194Z,96404.17
2019-04-11T01:37:48.317Z,96407.81
2019-04-11T01:40:19.964Z,96403.78
2019-04-11T01:42:51.342Z,96398.83
2019-04-11T01:45:25.340Z,96403.55
2019-04-11T01:48:05.587Z,96405.78
2019-04-11T01:50:37.409Z,96405.53
2019-04-11T01:53:09.275Z,96406.34
2019-04-11T01:55:40.840Z,96401.59
2019-04-11T01:58:11.973Z,96409.16
2019-04-11T02:01:01.968Z,96406.53
2019-04-11T02:03:41.406Z,96412.66
2019-04-11T02:06:13.821Z,96414.56
2019-04-11T02:08:44.840Z,96414.58
2019-04-11T02:11:17.128Z,96420.74
2019-04-11T02:13:48.263Z,96422.45
2019-04-11T02:16:19.376Z,96422.83
2019-04-11T02:18:50.342Z,96426.08
2019-04-11T02:21:21.906Z,96420.34
2019-04-11T02:23:59.431Z,96421.06
2019-04-11T02:26:33.579Z,96423.38
2019-04-11T02:29:05.547Z,96423.95
2019-04-11T02:31:38.872Z,96425.66
2019-04-11T02:34:11.471Z,96426.69
2019-04-11T02:36:43.049Z,96424.87
2019-04-11T02:39:19.257Z,96426.01
2019-04-11T02:41:50.623Z,96430.23
2019-04-11T02:44:39.591Z,96427.25
2019-04-11T02:47:01.818Z,96430.06
2019-04-11T02:49:27.937Z,96431.51
2019-04-11T02:52:00.833Z,96430.86
2019-04-11T02:54:33.809Z,96440.42
2019-04-11T02:57:05.779Z,96432.09
2019-04-11T02:59:38.907Z,96436.36
2019-04-11T03:02:13.101Z,96437.35
2019-04-11T03:04:43.934Z,96433.45
2019-04-11T03:07:16.563Z,96439.63
2019-04-11T03:09:48.819Z,96440.20
2019-04-11T03:12:21.681Z,96441.81
2019-04-11T03:15:09.311Z,96445.25
2019-04-11T03:17:32.900Z,96445.28
2019-04-11T03:20:10.464Z,96449.08
2019-04-11T03:22:32.289Z,96451.80
2019-04-11T03:25:06.053Z,96457.32
2019-04-11T03:27:38.471Z,96455.69
2019-04-11T03:30:15.129Z,96452.55
2019-04-11T03:38:17.364Z,96450.30
2019-04-11T03:40:43.212Z,96445.58
2019-04-11T03:43:09.369Z,96453.50
2019-04-11T03:45:51.381Z,96461.77
2019-04-11T03:48:20.467Z,96451.94
2019-04-11T03:50:37.129Z,96461.81
2019-04-11T03:53:10.944Z,96458.75
2019-04-11T03:55:43.236Z,96461.08
2019-04-11T03:58:15.400Z,96459.58
2019-04-11T04:00:49.613Z,96462.41
2019-04-11T04:03:20.289Z,96465.37
2019-04-11T04:05:52.839Z,96469.04
2019-04-11T04:08:25.193Z,96470.91
2019-04-11T04:11:22.251Z,96480.30
2019-04-11T04:14:12.641Z,96481.39
2019-04-11T04:17:03.831Z,96482.81
2019-04-11T04:19:47.612Z,96485.39
2019-04-11T04:22:29.257Z,96491.78
2019-04-11T04:25:03.775Z,96496.33
2019-04-11T04:27:35.318Z,96496.00
2019-04-11T04:30:08.595Z,96488.59
2019-04-11T04:32:40.612Z,96497.50
2019-04-11T04:35:16.806Z,96500.46
2019-04-11T04:37:45.395Z,96500.56
2019-04-11T04:40:31.421Z,96504.58
2019-04-11T04:42:55.307Z,96508.67
2019-04-11T04:45:24.337Z,96511.04
2019-04-11T04:48:02.577Z,96514.36
2019-04-11T04:50:28.683Z,96519.17
2019-04-11T04:53:02.580Z,96515.25
2019-04-11T04:55:34.630Z,96509.61
2019-04-11T04:58:07.240Z,96515.41
2019-04-11T05:00:40.283Z,96523.92
2019-04-11T05:03:11.399Z,96521.82
2019-04-11T05:05:44.257Z,96529.75
2019-04-11T05:08:16.539Z,96526.44
2019-04-11T05:10:49.056Z,96523.15
2019-04-11T05:13:21.686Z,96525.19
2019-04-11T05:16:04.458Z,96532.89
2019-04-11T05:18:25.904Z,96529.22
2019-04-11T05:20:58.724Z,96532.41
2019-04-11T05:23:29.939Z,96531.47
2019-04-11T05:26:01.656Z,96534.69
2019-04-11T05:28:32.678Z,96539.50
2019-04-11T05:31:03.728Z,96539.77
2019-04-11T05:33:35.060Z,96543.02
2019-04-11T05:36:06.109Z,96542.11
2019-04-11T05:38:38.305Z,96547.22
2019-04-11T05:41:12.267Z,96541.56
2019-04-11T05:43:43.369Z,96549.27
2019-04-11T05:46:26.407Z,96548.89
2019-04-11T05:49:02.288Z,96549.96
2019-04-11T05:51:42.615Z,96549.89
2019-04-11T05:54:08.029Z,96546.47
2019-04-11T05:56:41.432Z,96548.00
2019-04-11T05:59:19.799Z,96554.00
2019-04-11T06:02:03.245Z,96549.74
2019-04-11T06:04:38.034Z,96554.91
2019-04-11T06:07:25.335Z,96555.19
2019-04-11T06:10:00.733Z,96559.30
2019-04-11T06:12:50.600Z,96565.88
2019-04-11T06:15:27.028Z,96562.81
2019-04-11T06:17:58.677Z,96562.61
2019-04-11T06:20:57.899Z,96570.40
2019-04-11T06:23:47.637Z,96570.19
2019-04-11T06:26:41.409Z,96574.51
2019-04-11T06:29:31.603Z,96577.33
2019-04-11T06:32:30.366Z,96573.65
2019-04-11T06:35:06.168Z,96582.20
2019-04-11T06:37:58.295Z,96583.14
2019-04-11T06:40:37.703Z,96584.75
2019-04-11T06:43:29.352Z,96580.65
2019-04-11T06:46:18.793Z,96584.57
2019-04-11T06:48:58.196Z,96584.02
2019-04-11T06:51:37.818Z,96586.23
2019-04-11T06:54:16.922Z,96586.81
2019-04-11T06:56:51.036Z,96590.73
2019-04-11T06:59:33.080Z,96593.61
2019-04-11T07:02:16.483Z,96591.17
2019-04-11T07:05:02.542Z,96597.10
2019-04-11T07:07:35.982Z,96584.92
2019-04-11T07:10:09.533Z,96587.48
2019-04-11T07:12:43.821Z,96588.33
2019-04-11T07:15:29.399Z,96591.12
2019-04-11T07:18:18.354Z,96588.91
2019-04-11T07:21:03.745Z,96586.85
2019-04-11T07:23:53.405Z,96586.63
2019-04-11T07:26:43.824Z,96590.97
2019-04-11T07:29:40.116Z,96593.11
2019-04-11T07:32:20.050Z,96587.69
2019-04-11T07:35:08.807Z,96595.47
2019-04-11T07:37:41.237Z,96596.78
2019-04-11T07:40:33.318Z,96593.52
2019-04-11T07:43:25.297Z,96601.23
2019-04-11T07:46:14.977Z,96602.69
2019-04-11T07:48:46.907Z,96600.58
2019-04-11T07:51:36.422Z,96599.77
2019-04-11T07:54:10.183Z,96598.16
2019-04-11T07:57:04.189Z,96598.92
2019-04-11T07:59:55.571Z,96603.24
2019-04-11T08:02:49.044Z,96596.93
2019-04-11T08:05:41.080Z,96603.91
2019-04-11T08:08:34.592Z,96606.20
2019-04-11T08:11:13.885Z,96610.91
2019-04-11T08:13:58.591Z,96607.75
2019-04-11T08:17:03.899Z,96610.06
2019-04-11T08:20:05.006Z,96610.05
2019-04-11T08:22:39.175Z,96607.73
2019-04-11T08:25:25.265Z,96610.55
2019-04-11T08:28:02.235Z,96616.24
2019-04-11T08:31:13.167Z,96616.73
2019-04-11T08:33:44.704Z,96623.30
2019-04-11T08:36:33.764Z,96623.94
2019-04-11T08:39:11.208Z,96625.66
2019-04-11T08:42:01.063Z,96623.75
2019-04-11T08:44:39.567Z,96621.85
2019-04-11T08:47:20.401Z,96626.68
2019-04-11T08:49:54.152Z,96623.89
2019-04-11T08:52:40.377Z,96628.52
2019-04-11T08:55:17.246Z,96634.98
2019-04-11T08:57:58.853Z,96625.98
2019-04-11T09:00:38.067Z,96636.91
2019-04-11T09:03:35.702Z,96635.59
2019-04-11T09:06:09.328Z,96631.63
2019-04-11T09:08:59.706Z,96628.41
2019-04-11T09:11:47.044Z,96629.40
2019-04-11T09:14:36.003Z,96630.80
2019-04-11T09:17:30.220Z,96630.50
2019-04-11T09:20:21.404Z,96628.86
2019-04-11T09:23:03.825Z,96630.77
2019-04-11T09:25:53.250Z,96630.59
2019-04-11T09:28:33.432Z,96632.20
2019-04-11T09:31:42.119Z,96635.41
2019-04-11T09:34:39.741Z,96637.30
2019-04-11T09:37:36.076Z,96636.51
2019-04-11T09:40:34.441Z,96642.50
2019-04-11T09:43:13.071Z,96633.77
2019-04-11T09:45:56.198Z,96635.78
2019-04-11T09:48:44.546Z,96637.97
2019-04-11T09:51:29.480Z,96637.78
2019-04-11T09:54:08.696Z,96634.80
2019-04-11T09:57:00.224Z,96631.95
2019-04-11T09:59:42.799Z,96630.49
2019-04-11T10:02:38.166Z,96625.80
2019-04-11T10:05:11.677Z,96634.83
2019-04-11T10:08:02.173Z,96636.70
2019-04-11T10:10:53.275Z,96636.31
2019-04-11T10:13:42.778Z,96633.14
2019-04-11T10:16:31.810Z,96633.02
2019-04-11T10:19:24.807Z,96635.77
2019-04-11T10:22:04.853Z,96641.16
2019-04-11T10:24:54.764Z,96637.16
2019-04-11T10:27:36.419Z,96635.30
2019-04-11T10:30:39.916Z,96642.70
2019-04-11T10:33:24.732Z,96644.07
2019-04-11T10:36:14.659Z,96647.49
2019-04-11T10:38:46.809Z,96641.38
2019-04-11T10:41:30.655Z,96638.33
2019-04-11T10:44:02.428Z,96639.67
2019-04-11T10:46:52.719Z,96640.02
2019-04-11T10:49:48.903Z,96650.67
2019-04-11T10:52:28.907Z,96647.50
2019-04-11T10:55:06.109Z,96641.70
2019-04-11T10:57:42.435Z,96648.13
2019-04-11T11:00:39.643Z,96646.39
2019-04-11T11:03:18.203Z,96650.50
2019-04-11T11:05:51.988Z,96648.33
2019-04-11T11:08:37.711Z,96656.95
2019-04-11T11:11:17.540Z,96652.23
2019-04-11T11:14:02.755Z,96653.47
2019-04-11T11:16:42.870Z,96655.64
2019-04-11T11:19:45.765Z,96649.81
2019-04-11T11:22:23.637Z,96650.62
2019-04-11T11:25:24.894Z,96648.14
2019-04-11T11:27:56.356Z,96647.28
2019-04-11T11:30:44.694Z,96649.26
2019-04-11T11:33:18.158Z,96654.05
2019-04-11T11:36:17.763Z,96659.53
2019-04-11T11:39:07.008Z,96660.42
2019-04-11T11:42:02.073Z,96659.95
2019-04-11T11:44:39.760Z,96655.69
2019-04-11T11:47:33.047Z,96662.86
2019-04-11T11:50:04.422Z,96659.09
2019-04-11T11:52:54.189Z,96662.02
2019-04-11T11:55:29.465Z,96662.16
2019-04-11T11:58:19.871Z,96659.45
2019-04-11T12:00:53.873Z,96657.77
2019-04-11T12:04:03.431Z,96655.87
2019-04-11T12:06:35.456Z,96661.52
2019-04-11T12:09:39.413Z,96658.88
2019-04-11T12:12:15.746Z,96650.78
2019-04-11T12:15:06.187Z,96655.91
2019-04-11T12:18:18.075Z,96657.38
2019-04-11T12:20:56.310Z,96660.91
2019-04-11T12:23:49.544Z,96657.05
2019-04-11T12:26:14.212Z,96661.30
2019-04-11T12:29:03.976Z,96656.23
2019-04-11T12:31:37.135Z,96668.12
2019-04-11T12:34:26.107Z,96655.16
2019-04-11T12:36:58.533Z,96655.16
2019-04-11T12:39:48.490Z,96657.59
2019-04-11T12:42:22.739Z,96656.38
2019-04-11T12:45:15.697Z,96649.50
2019-04-11T12:47:55.630Z,96655.37
2019-04-11T12:50:44.707Z,96646.80
2019-04-11T12:53:26.636Z,96646.05
2019-04-11T12:56:17.342Z,96644.95
2019-04-11T12:58:50.780Z,96648.91
2019-04-11T13:01:39.429Z,96641.29
2019-04-11T13:04:25.774Z,96645.17
2019-04-11T13:07:34.059Z,96643.92
2019-04-11T13:10:24.547Z,96637.77
2019-04-11T13:13:20.701Z,96646.03
2019-04-11T13:16:12.188Z,96648.83
2019-04-11T13:19:02.869Z,96642.44
2019-04-11T13:21:44.462Z,96643.84
2019-04-11T13:24:33.354Z,96643.34
2019-04-11T13:27:32.808Z,96642.23
2019-04-11T13:30:23.698Z,96637.38
2019-04-11T13:32:58.599Z,96637.17
2019-04-11T13:36:03.556Z,96640.77
2019-04-11T13:38:51.673Z,96640.92
2019-04-11T13:41:42.340Z,96636.89
2019-04-11T13:44:31.036Z,96633.57
2019-04-11T13:47:34.058Z,96639.66
2019-04-11T13:50:16.270Z,96644.92
2019-04-11T13:52:57.299Z,96641.44
2019-04-11T13:55:35.314Z,96634.64
2019-04-11T13:58:34.487Z,96629.44
2019-04-11T14:01:11.979Z,96644.64
2019-04-11T14:04:01.965Z,96641.33
2019-04-11T14:06:34.196Z,96644.42
2019-04-11T14:09:37.800Z,96637.63
2019-04-11T14:12:14.393Z,96628.19
2019-04-11T14:15:11.701Z,96630.17
2019-04-11T14:18:05.106Z,96637.95
2019-04-11T14:20:42.061Z,96633.98
2019-04-11T14:23:34.631Z,96629.61
2019-04-11T14:26:24.440Z,96634.67
2019-04-11T14:28:59.677Z,96629.86
2019-04-11T14:31:53.822Z,96623.56
2019-04-11T14:34:47.610Z,96623.47
2019-04-11T14:37:46.190Z,96634.10
2019-04-11T14:41:01.454Z,96635.27
2019-04-11T14:43:29.818Z,96631.44
2019-04-11T14:46:22.916Z,96638.15
2019-04-11T14:49:05.724Z,96635.84
2019-04-11T14:51:59.042Z,96634.83
2019-04-11T14:54:50.354Z,96636.52
2019-04-11T14:57:55.664Z,96636.83
2019-04-11T15:00:30.545Z,96637.23
2019-04-11T15:03:32.930Z,96632.91
2019-04-11T15:06:18.663Z,96638.85
2019-04-11T15:09:03.990Z,96632.31
2019-04-11T15:11:57.204Z,96631.50
2019-04-11T15:14:59.887Z,96635.55
2019-04-11T15:17:33.453Z,96636.67
2019-04-11T15:20:37.476Z,96643.48
2019-04-11T15:23:12.256Z,96644.75
2019-04-11T15:26:09.808Z,96642.89
2019-04-11T15:28:59.046Z,96642.52
2019-04-11T15:31:39.456Z,96649.48
2019-04-11T15:34:19.876Z,96648.23
2019-04-11T15:37:16.060Z,96647.21
2019-04-11T15:40:24.396Z,96642.31
2019-04-11T15:43:24.491Z,96648.16
2019-04-11T15:46:01.417Z,96645.45
2019-04-11T15:49:00.372Z,96642.52
2019-04-11T15:51:37.295Z,96649.86
2019-04-11T15:54:28.293Z,96655.06
2019-04-11T15:57:12.641Z,96656.11
2019-04-11T16:00:07.402Z,96651.41
2019-04-11T16:03:00.130Z,96649.19
2019-04-11T16:05:50.249Z,96655.73
2019-04-11T16:08:43.922Z,96651.62
2019-04-11T16:11:34.105Z,96651.02
2019-04-11T16:14:25.460Z,96660.13
2019-04-11T16:17:14.728Z,96649.19
2019-04-11T16:19:50.683Z,96655.23
2019-04-11T16:22:54.895Z,96648.17
2019-04-11T16:25:23.754Z,96651.53
2019-04-11T16:28:19.529Z,96653.38
2019-04-11T16:30:52.611Z,96653.52
2019-04-11T16:33:35.912Z,96660.19
2019-04-11T16:36:29.056Z,96658.52
2019-04-11T16:39:28.045Z,96658.23
2019-04-11T16:42:10.808Z,96658.66
2019-04-11T16:45:07.227Z,96655.42
2019-04-11T16:48:06.263Z,96661.23
2019-04-11T16:50:37.658Z,96666.19
2019-04-11T16:53:11.645Z,96666.83
2019-04-11T16:55:43.659Z,96662.72
2019-04-11T16:58:19.285Z,96665.97
2019-04-11T17:00:52.185Z,96663.00
2019-04-11T17:03:24.744Z,96672.38
2019-04-11T17:05:59.542Z,96673.69
2019-04-11T17:08:47.432Z,96662.29
2019-04-11T17:11:20.108Z,96676.84
2019-04-11T17:13:51.588Z,96674.80
2019-04-11T17:16:22.909Z,96682.50
2019-04-11T17:18:53.982Z,96678.33
2019-04-11T17:21:25.503Z,96677.02
2019-04-11T17:23:56.928Z,96677.89
2019-04-11T17:26:27.996Z,96677.91
2019-04-11T17:28:59.116Z,96681.70
2019-04-11T17:31:30.482Z,96677.98
2019-04-11T17:34:02.781Z,96679.22
2019-04-11T17:36:34.878Z,96678.40
2019-04-11T17:39:08.109Z,96680.05
2019-04-11T17:41:41.784Z,96684.47
2019-04-11T17:44:12.445Z,96688.41
2019-04-11T17:46:50.158Z,96692.99
2019-04-11T17:49:21.506Z,96688.80
2019-04-11T17:51:56.030Z,96696.91
2019-04-11T17:54:25.754Z,96697.81
2019-04-11T17:56:58.995Z,96699.79
2019-04-11T17:59:29.733Z,96707.41
2019-04-11T18:02:00.936Z,96705.92
2019-04-11T18:04:32.356Z,96704.16
2019-04-11T18:07:04.022Z,96713.09
2019-04-11T18:09:35.417Z,96718.86
2019-04-11T18:12:07.129Z,96721.62
2019-04-11T18:14:42.296Z,96726.19
2019-04-11T18:17:16.308Z,96727.55
2019-04-11T18:19:54.436Z,96728.98
2019-04-11T18:22:27.610Z,96738.00
2019-04-11T18:24:59.549Z,96731.20
2019-04-11T18:27:34.305Z,96735.42
2019-04-11T18:30:09.380Z,96735.66
2019-04-11T18:32:41.088Z,96743.70
2019-04-11T18:35:12.736Z,96747.08
2019-04-11T18:37:49.212Z,96749.03
2019-04-11T18:40:20.379Z,96754.28
2019-04-11T18:42:51.497Z,96755.33
2019-04-11T18:45:22.620Z,96759.83
2019-04-11T18:47:54.269Z,96758.12
2019-04-11T18:50:25.420Z,96761.64
2019-04-11T18:52:59.540Z,96768.84
2019-04-11T18:55:30.379Z,96768.13
2019-04-11T18:58:04.002Z,96770.09
2019-04-11T19:00:38.939Z,96771.08
2019-04-11T19:03:10.885Z,96779.63
2019-04-11T19:05:42.979Z,96772.53
2019-04-11T19:08:15.536Z,96775.15
2019-04-11T19:10:49.051Z,96789.63
2019-04-11T19:13:20.152Z,96787.31
2019-04-11T19:15:51.350Z,96791.68
2019-04-11T19:18:22.897Z,96791.47
2019-04-11T19:20:53.997Z,96796.14
2019-04-11T19:23:25.122Z,96792.99
2019-04-11T19:25:56.191Z,96794.81
2019-04-11T19:28:27.494Z,96795.33
2019-04-11T19:30:58.642Z,96802.41
2019-04-11T19:33:33.997Z,96800.86
2019-04-11T19:36:02.872Z,96801.27
2019-04-11T19:38:35.714Z,96798.63
2019-04-11T19:41:06.847Z,96799.32
2019-04-11T19:43:40.566Z,96796.69
2019-04-11T19:46:10.744Z,96796.20
2019-04-11T19:48:47.878Z,96800.05
2019-04-11T19:51:18.975Z,96796.98
2019-04-11T19:53:50.007Z,96800.72
2019-04-11T19:56:45.219Z,96801.25
2019-04-11T19:59:16.379Z,96799.94
2019-04-11T20:01:50.802Z,96799.70
2019-04-11T20:04:24.015Z,96797.91
2019-04-11T20:06:55.960Z,96798.88
2019-04-11T20:09:30.678Z,96797.06
2019-04-11T20:12:05.487Z,96797.06
2019-04-11T20:14:36.864Z,96792.67
2019-04-11T20:17:09.228Z,96792.81
2019-04-11T20:19:41.206Z,96792.39
2019-04-11T20:22:12.242Z,96794.30
2019-04-11T20:24:46.745Z,96795.11
2019-04-11T20:27:20.034Z,96792.99
2019-04-11T20:29:53.138Z,96788.41
2019-04-11T20:32:23.583Z,96787.21
2019-04-11T20:34:54.739Z,96795.19
2019-04-11T20:37:26.244Z,96795.66
2019-04-11T20:39:57.462Z,96793.38
2019-04-11T20:42:33.957Z,96797.70
2019-04-11T20:45:05.656Z,96794.72
2019-04-11T20:47:37.277Z,96798.06
2019-04-11T20:50:10.449Z,96796.12
2019-04-11T20:52:51.265Z,96802.28
2019-04-11T20:55:22.718Z,96796.90
2019-04-11T20:57:54.003Z,96792.89
2019-04-11T21:00:25.470Z,96796.42
2019-04-11T21:02:58.389Z,96799.14
2019-04-11T21:05:30.930Z,96793.15
2019-04-11T21:08:02.953Z,96792.44
2019-04-11T21:10:34.888Z,96787.77
2019-04-11T21:13:11.619Z,96790.23
2019-04-11T21:15:42.707Z,96788.37
2019-04-11T21:18:15.747Z,96788.55
2019-04-11T21:20:55.052Z,96793.45
2019-04-11T21:23:24.756Z,96795.15
2019-04-11T21:25:58.850Z,96802.99
2019-04-11T21:28:30.330Z,96804.34
2019-04-11T21:31:02.052Z,96805.81
2019-04-11T21:33:35.042Z,96801.57
2019-04-11T21:36:07.383Z,96803.03
2019-04-11T21:38:38.529Z,96804.20
2019-04-11T21:41:10.649Z,96801.43
2019-04-11T21:43:41.738Z,96810.50
2019-04-11T21:46:12.807Z,96805.36
2019-04-11T21:48:44.319Z,96817.66
2019-04-11T21:51:15.518Z,96818.98
2019-04-11T21:53:46.597Z,96823.25
2019-04-11T21:56:18.653Z,96822.28
2019-04-11T21:58:50.798Z,96822.47
2019-04-11T22:01:25.583Z,96825.84
2019-04-11T22:03:57.842Z,96823.44
2019-04-11T22:06:30.467Z,96831.61
2019-04-11T22:09:04.829Z,96829.22
2019-04-11T22:11:38.363Z,96826.67
2019-04-11T22:14:11.300Z,96820.81
2019-04-11T22:16:45.153Z,96821.56
2019-04-11T22:19:16.876Z,96818.00
2019-04-11T22:21:48.050Z,96821.22
2019-04-11T22:24:19.065Z,96818.55
2019-04-11T22:26:51.160Z,96820.20
2019-04-11T22:29:24.845Z,96817.73
2019-04-11T22:31:56.576Z,96824.00
2019-04-11T22:34:35.380Z,96818.89
2019-04-11T22:37:06.735Z,96826.88
2019-04-11T22:39:37.766Z,96818.73
2019-04-11T22:42:09.080Z,96824.38
2019-04-11T22:44:40.130Z,96824.33
2019-04-11T22:47:11.584Z,96829.29
2019-04-11T22:49:43.095Z,96826.86
2019-04-11T22:52:14.361Z,96826.56
2019-04-11T22:54:45.413Z,96827.56
2019-04-11T22:57:16.738Z,96826.09
2019-04-11T22:59:47.842Z,96827.22
2019-04-11T23:02:26.660Z,96823.42
2019-04-11T23:04:57.813Z,96818.64
2019-04-11T23:07:29.485Z,96825.80
2019-04-11T23:10:00.517Z,96826.61
2019-04-11T23:12:33.063Z,96825.67
2019-04-11T23:15:04.261Z,96819.55
2019-04-11T23:17:37.885Z,96826.09
2019-04-11T23:20:11.862Z,96831.84
2019-04-11T23:22:44.467Z,96828.95
2019-04-11T23:25:15.486Z,96828.97
2019-04-11T23:27:46.599Z,96831.53
2019-04-11T23:30:24.353Z,96834.09
2019-04-11T23:32:55.461Z,96836.56
2019-04-11T23:35:26.753Z,96832.87
2019-04-11T23:37:58.026Z,96839.54
2019-04-11T23:40:29.306Z,96833.38
2019-04-11T23:43:00.322Z,96831.20
2019-04-11T23:45:33.097Z,96839.00
2019-04-11T23:48:05.740Z,96834.25
2019-04-11T23:50:37.037Z,96834.66
2019-04-11T23:53:08.135Z,96835.59
2019-04-11T23:55:39.233Z,96834.28
2019-04-11T23:58:10.527Z,96832.59
